Time;durP1;ratioP1;P1;durP2;ratioP2;P2;SDS_P1;SDS_P2;PMS_P1;PMS_P2;Temp;Humidity;BMP_temperature;BMP_pressure;BME280_temperature;BME280_humidity;BME280_pressure;Samples;Min_cycle;Max_cycle;Signal;HPM_P1;HPM_P2
2022/02/09 00:00:45;;;;;;;0.00;0.00;;;8.40;99.90;;;;;;5070256;28;20065;-83
2022/02/09 00:03:20;;;;;;;0.00;0.00;;;8.40;99.90;;;;;;5053797;28;20040;-82
2022/02/09 00:06:01;;;;;;;0.25;0.15;;;8.40;99.90;;;;;;5071583;28;20049;-89
2022/02/09 00:08:27;;;;;;;0.10;0.10;;;8.40;99.90;;;;;;5072058;28;20512;-83
2022/02/09 00:11:01;;;;;;;0.03;0.03;;;8.50;99.90;;;;;;5053892;28;20041;-83
2022/02/09 00:13:52;;;;;;;0.00;0.00;;;8.00;99.90;;;;;;5054367;28;20457;-90
2022/02/09 00:19:13;;;;;;;0.10;0.10;;;8.40;99.90;;;;;;5055404;28;20052;-87
2022/02/09 00:22:09;;;;;;;0.03;0.03;;;8.50;99.90;;;;;;5071076;28;20432;-83
2022/02/09 01:56:31;;;;;;;0.03;0.03;;;8.60;99.90;;;;;;5067892;28;20109;-88
2022/02/09 01:58:57;;;;;;;0.00;0.00;;;8.50;99.90;;;;;;5051310;28;20414;-89
2022/02/09 02:01:25;;;;;;;0.28;0.28;;;8.60;99.90;;;;;;5067912;28;20041;-83
2022/02/09 02:03:52;;;;;;;0.00;0.00;;;8.60;99.90;;;;;;5035183;28;20037;-89
2022/02/09 02:06:20;;;;;;;0.00;0.00;;;8.60;99.90;;;;;;5051598;28;20037;-83
2022/02/09 02:08:48;;;;;;;0.00;0.00;;;8.60;99.90;;;;;;5051653;28;20037;-83
2022/02/09 02:16:40;;;;;;;0.00;0.00;;;8.60;99.90;;;;;;5054095;28;20068;-89
2022/02/09 02:19:25;;;;;;;0.00;0.00;;;8.60;99.90;;;;;;5052364;28;20041;-90
2022/02/09 02:59:36;;;;;;;0.00;0.00;;;8.40;99.90;;;;;;5053979;28;20049;-90
2022/02/09 03:08:22;;;;;;;0.00;0.00;;;8.40;99.90;;;;;;5052561;28;20037;-89
2022/02/09 03:13:28;;;;;;;0.00;0.00;;;8.40;99.90;;;;;;5067217;28;20052;-89
2022/02/09 03:16:15;;;;;;;0.00;0.00;;;8.40;99.90;;;;;;5035150;28;20041;-83
2022/02/09 03:19:14;;;;;;;0.00;0.00;;;8.50;99.90;;;;;;5036092;28;20107;-83
2022/02/09 03:24:23;;;;;;;0.00;0.00;;;8.40;99.90;;;;;;5050195;28;20127;-89
2022/02/09 03:53:55;;;;;;;0.10;0.10;;;8.30;99.90;;;;;;5050362;28;20088;-91
2022/02/09 03:58:52;;;;;;;0.00;0.00;;;8.30;99.90;;;;;;5049992;28;20059;-90
2022/02/09 04:01:20;;;;;;;0.03;0.03;;;8.30;99.90;;;;;;5048813;28;20077;-83
2022/02/09 04:03:47;;;;;;;0.10;0.10;;;8.30;99.90;;;;;;5066673;28;20402;-83
2022/02/09 04:06:15;;;;;;;0.00;0.00;;;8.30;99.90;;;;;;5065833;28;20041;-83
2022/02/09 04:08:52;;;;;;;0.10;0.10;;;8.20;99.90;;;;;;5067123;28;20048;-89
2022/02/09 04:11:28;;;;;;;0.10;0.10;;;8.30;99.90;;;;;;5067462;28;20041;-82
2022/02/09 04:36:27;;;;;;;0.10;0.10;;;8.20;99.90;;;;;;5055172;28;20046;-89
2022/02/09 04:50:39;;;;;;;0.10;0.10;;;8.20;99.90;;;;;;5054486;28;20406;-83
2022/02/09 04:55:22;;;;;;;0.00;0.00;;;8.20;99.90;;;;;;5053913;28;20041;-90
2022/02/09 04:57:57;;;;;;;0.10;0.10;;;8.20;99.90;;;;;;5089144;28;20108;-82
2022/02/09 05:00:42;;;;;;;;;;;8.20;99.90;;;;;;5052042;28;20049;-82
2022/02/09 05:21:04;;;;;;;0.10;0.10;;;8.20;99.90;;;;;;5054472;28;20096;-90
2022/02/09 05:28:02;;;;;;;0.00;0.00;;;8.10;99.90;;;;;;5052166;28;20487;-83
2022/02/09 05:30:22;;;;;;;0.10;0.10;;;8.10;99.90;;;;;;5053974;28;20052;-83
2022/02/09 05:32:49;;;;;;;0.20;0.20;;;8.20;99.90;;;;;;5052308;28;20038;-83
2022/02/09 05:35:20;;;;;;;0.03;0.03;;;8.20;99.90;;;;;;5051405;28;20079;-89
2022/02/09 05:37:53;;;;;;;0.00;0.00;;;8.20;99.90;;;;;;5067890;28;20106;-88
2022/02/09 05:40:20;;;;;;;0.08;0.08;;;8.20;99.90;;;;;;5051388;28;20135;-83
2022/02/09 05:42:47;;;;;;;0.00;0.00;;;8.20;99.90;;;;;;5038700;28;20079;-91
2022/02/09 05:45:15;;;;;;;0.00;0.00;;;8.20;99.90;;;;;;5052382;28;20143;-89
2022/02/09 05:53:16;;;;;;;0.00;0.00;;;8.20;99.90;;;;;;5052923;28;20049;-90
2022/02/09 05:56:07;;;;;;;0.10;0.10;;;8.20;99.90;;;;;;5069924;28;20037;-89
2022/02/09 05:58:38;;;;;;;0.00;0.00;;;8.20;99.90;;;;;;5051820;28;20038;-83
2022/02/09 06:01:05;;;;;;;0.00;0.00;;;8.20;99.90;;;;;;5068320;28;20053;-89
2022/02/09 06:03:32;;;;;;;0.00;0.00;;;8.20;99.90;;;;;;5068228;28;20502;-90
2022/02/09 06:05:59;;;;;;;0.00;0.00;;;8.20;99.90;;;;;;5034721;28;20033;-83
2022/02/09 06:08:26;;;;;;;0.00;0.00;;;8.20;99.90;;;;;;5067816;28;20040;-89
2022/02/09 06:11:08;;;;;;;0.00;0.00;;;8.40;99.90;;;;;;5052056;28;20064;-90
2022/02/09 06:19:40;;;;;;;0.43;0.20;;;8.20;99.90;;;;;;5068205;28;20049;-90
2022/02/09 06:21:43;;;;;;;0.00;0.00;;;8.20;99.90;;;;;;5067642;28;20045;-90
2022/02/09 06:24:09;;;;;;;0.00;0.00;;;8.20;99.90;;;;;;5067818;28;20095;-89
2022/02/09 06:26:36;;;;;;;0.00;0.00;;;8.30;99.90;;;;;;5067827;28;20045;-82
2022/02/09 06:29:03;;;;;;;0.20;0.20;;;8.20;99.90;;;;;;5067677;28;20132;-83
2022/02/09 06:31:32;;;;;;;0.00;0.00;;;8.30;99.90;;;;;;5067093;28;20037;-83
2022/02/09 06:33:58;;;;;;;0.00;0.00;;;8.20;99.90;;;;;;5068533;28;20033;-83
2022/02/09 06:36:26;;;;;;;0.05;0.05;;;8.20;99.90;;;;;;5066691;28;20474;-89
2022/02/09 06:38:55;;;;;;;0.00;0.00;;;8.30;99.90;;;;;;5051840;28;20067;-90
2022/02/09 06:41:22;;;;;;;0.00;0.00;;;8.30;99.90;;;;;;5034503;28;20136;-89
2022/02/09 06:43:49;;;;;;;0.03;0.03;;;8.20;99.90;;;;;;5050561;28;20135;-83
2022/02/09 06:46:15;;;;;;;0.00;0.00;;;8.20;99.90;;;;;;5050603;28;20087;-90
2022/02/09 06:48:42;;;;;;;0.00;0.00;;;8.20;99.90;;;;;;5067812;28;20036;-89
2022/02/09 06:51:13;;;;;;;0.00;0.00;;;8.20;99.90;;;;;;5067819;28;20040;-91
2022/02/09 06:53:59;;;;;;;0.10;0.10;;;8.20;99.90;;;;;;5068191;28;20063;-83
2022/02/09 06:56:41;;;;;;;0.00;0.00;;;8.20;99.90;;;;;;5070386;28;20133;-90
2022/02/09 06:59:21;;;;;;;0.03;0.03;;;8.20;99.90;;;;;;5055517;28;20049;-89
2022/02/09 07:01:47;;;;;;;0.00;0.00;;;8.20;99.90;;;;;;5068309;28;20099;-83
2022/02/09 07:04:14;;;;;;;0.10;0.10;;;8.20;99.90;;;;;;5054081;28;20037;-83
2022/02/09 07:06:41;;;;;;;0.03;0.03;;;8.30;99.90;;;;;;5050922;28;20045;-89
2022/02/09 07:09:08;;;;;;;0.00;0.00;;;8.80;99.90;;;;;;5053215;28;20402;-90
2022/02/09 07:11:34;;;;;;;0.10;0.10;;;8.20;99.90;;;;;;5065612;28;20037;-83
2022/02/09 07:14:02;;;;;;;0.00;0.00;;;8.20;99.90;;;;;;5031822;28;20049;-90
2022/02/09 07:16:30;;;;;;;0.00;0.00;;;8.30;99.90;;;;;;5055496;28;20713;-90
2022/02/09 07:18:57;;;;;;;0.10;0.10;;;8.30;99.90;;;;;;5060965;28;20533;-91
2022/02/09 07:21:28;;;;;;;0.00;0.00;;;8.30;99.90;;;;;;5071309;28;20037;-89
2022/02/09 07:23:57;;;;;;;0.10;0.10;;;8.20;99.90;;;;;;5055214;28;20051;-90
2022/02/09 07:29:23;;;;;;;0.15;0.15;;;8.30;99.90;;;;;;5043353;28;20079;-90
2022/02/09 07:31:50;;;;;;;0.00;0.00;;;8.30;99.90;;;;;;5055902;28;20045;-85
2022/02/09 07:34:16;;;;;;;0.10;0.10;;;8.30;99.90;;;;;;5036305;28;20125;-85
2022/02/09 07:36:45;;;;;;;0.10;0.10;;;8.30;99.90;;;;;;5067143;28;20077;-86
2022/02/09 07:39:13;;;;;;;0.00;0.00;;;8.30;99.90;;;;;;5071932;28;20036;-91
2022/02/09 07:41:42;;;;;;;0.10;0.10;;;8.30;99.90;;;;;;5088248;28;20041;-85
2022/02/09 07:46:55;;;;;;;0.10;0.10;;;8.30;99.90;;;;;;5067218;28;20073;-85
2022/02/09 07:49:38;;;;;;;0.10;0.10;;;8.30;99.90;;;;;;5071035;28;20494;-86
2022/02/09 07:52:10;;;;;;;0.10;0.10;;;8.20;99.90;;;;;;5070277;28;20045;-90
2022/02/09 07:54:37;;;;;;;0.00;0.00;;;8.30;99.90;;;;;;5051099;28;20056;-91
2022/02/09 07:57:04;;;;;;;0.10;0.10;;;8.40;99.90;;;;;;5052519;28;20128;-86
2022/02/09 07:59:31;;;;;;;0.20;0.13;;;8.40;99.90;;;;;;5050917;28;20053;-86
2022/02/09 08:01:58;;;;;;;0.05;0.05;;;8.40;99.90;;;;;;5036116;28;20073;-90
2022/02/09 08:04:25;;;;;;;0.10;0.10;;;8.30;99.90;;;;;;5068488;28;20049;-90
2022/02/09 08:06:52;;;;;;;0.00;0.00;;;8.40;99.90;;;;;;5036327;28;20132;-90
2022/02/09 08:09:36;;;;;;;0.10;0.10;;;8.40;99.90;;;;;;5056004;28;20099;-91
2022/02/09 08:28:33;;;;;;;0.10;0.10;;;8.50;99.90;;;;;;5055963;28;20037;-89
2022/02/09 08:33:27;;;;;;;0.00;0.00;;;8.60;99.90;;;;;;5054492;28;20475;-85
2022/02/09 08:35:56;;;;;;;0.00;0.00;;;8.50;99.90;;;;;;5070653;28;20037;-86
2022/02/09 08:38:28;;;;;;;0.00;0.00;;;8.60;99.90;;;;;;5055158;28;20129;-89
2022/02/09 08:40:55;;;;;;;0.00;0.00;;;8.50;99.90;;;;;;5055075;28;20429;-90
2022/02/09 08:43:23;;;;;;;0.00;0.00;;;8.60;99.90;;;;;;5038195;28;20072;-89
2022/02/09 08:45:51;;;;;;;0.38;0.30;;;8.60;99.90;;;;;;5054613;28;20075;-90
2022/02/09 08:48:20;;;;;;;0.10;0.10;;;8.60;99.90;;;;;;5054210;28;20558;-89
2022/02/09 08:50:52;;;;;;;0.00;0.00;;;8.60;99.90;;;;;;5071462;28;20045;-85
2022/02/09 08:53:21;;;;;;;0.00;0.00;;;8.60;99.90;;;;;;5054255;28;20044;-89
2022/02/09 08:55:48;;;;;;;0.03;0.03;;;8.60;99.90;;;;;;5039058;28;20071;-89
2022/02/09 08:58:18;;;;;;;0.00;0.00;;;8.60;99.90;;;;;;5054979;28;20046;-89
2022/02/09 09:00:46;;;;;;;0.00;0.00;;;8.60;99.90;;;;;;5053619;28;20060;-86
2022/02/09 09:03:20;;;;;;;0.10;0.10;;;8.60;99.90;;;;;;5053935;28;20045;-85
2022/02/09 09:05:50;;;;;;;0.10;0.10;;;8.60;99.90;;;;;;5039251;28;20088;-86
2022/02/09 09:17:32;;;;;;;0.03;0.03;;;8.70;99.90;;;;;;5056622;28;20049;-89
2022/02/09 10:33:09;;;;;;;0.00;0.00;;;8.50;99.90;;;;;;5059951;28;20041;-85
2022/02/09 10:35:48;;;;;;;0.10;0.10;;;8.50;99.90;;;;;;5051764;28;20049;-84
2022/02/09 10:38:35;;;;;;;0.00;0.00;;;8.50;99.90;;;;;;5067090;28;20041;-86
2022/02/09 10:41:12;;;;;;;0.10;0.10;;;8.70;99.90;;;;;;5052258;28;20045;-90
2022/02/09 10:43:40;;;;;;;0.00;0.00;;;8.60;99.90;;;;;;5052303;28;20056;-89
2022/02/09 10:46:16;;;;;;;0.00;0.00;;;8.60;99.90;;;;;;5035836;28;20049;-86
2022/02/09 10:49:09;;;;;;;0.10;0.10;;;8.50;99.90;;;;;;5032332;28;20037;-91
2022/02/09 10:54:06;;;;;;;0.08;0.08;;;8.70;99.90;;;;;;5032912;28;20081;-90
2022/02/09 10:56:34;;;;;;;0.00;0.00;;;8.70;99.90;;;;;;5039513;28;20049;-90
2022/02/09 10:59:04;;;;;;;0.00;0.00;;;8.80;99.90;;;;;;5051882;28;20132;-90
2022/02/09 11:01:32;;;;;;;0.00;0.00;;;8.80;99.90;;;;;;5051314;28;20049;-85
2022/02/09 11:03:59;;;;;;;0.10;0.10;;;8.80;99.90;;;;;;5051985;28;20128;-85
2022/02/09 11:06:33;;;;;;;0.00;0.00;;;8.80;99.90;;;;;;5036022;28;20045;-90
2022/02/09 11:09:06;;;;;;;0.03;0.03;;;8.80;99.90;;;;;;5052048;28;20500;-89
2022/02/09 11:11:39;;;;;;;0.80;0.30;;;8.90;99.90;;;;;;5052021;28;20040;-89
2022/02/09 11:14:13;;;;;;;0.00;0.00;;;8.80;99.90;;;;;;5051706;28;20048;-86
2022/02/09 11:16:46;;;;;;;0.10;0.10;;;8.80;99.90;;;;;;5051206;28;20124;-88
2022/02/09 11:19:16;;;;;;;0.00;0.00;;;8.90;99.90;;;;;;5050877;28;20041;-86
2022/02/09 11:21:49;;;;;;;0.10;0.10;;;8.80;99.90;;;;;;5015116;28;20034;-90
2022/02/09 11:24:22;;;;;;;0.00;0.00;;;8.90;99.90;;;;;;5037510;28;20041;-86
2022/02/09 11:27:08;;;;;;;0.00;0.00;;;8.80;99.90;;;;;;5058929;28;20038;-90
2022/02/09 11:29:50;;;;;;;0.00;0.00;;;8.90;99.90;;;;;;5067316;28;20044;-86
2022/02/09 11:32:35;;;;;;;0.00;0.00;;;8.90;99.90;;;;;;5056936;28;20049;-91
2022/02/09 11:35:20;;;;;;;0.00;0.00;;;8.90;99.90;;;;;;5071950;28;20119;-86
2022/02/09 11:40:40;;;;;;;0.08;0.08;;;9.00;99.90;;;;;;5074482;28;20053;-86
2022/02/09 11:43:32;;;;;;;0.00;0.00;;;8.80;99.90;;;;;;5056115;28;20037;-86
2022/02/09 12:11:20;;;;;;;0.00;0.00;;;8.70;99.90;;;;;;5070307;28;20049;-92
2022/02/09 12:17:28;;;;;;;0.00;0.00;;;8.60;99.90;;;;;;5070888;28;20136;-92
2022/02/09 12:19:45;;;;;;;0.00;0.00;;;8.60;99.90;;;;;;5055608;28;20049;-86
2022/02/09 12:22:21;;;;;;;0.00;0.00;;;8.60;99.90;;;;;;5040889;28;20037;-92
2022/02/09 12:24:55;;;;;;;0.00;0.00;;;8.70;99.90;;;;;;5065754;28;20380;-86
2022/02/09 12:27:22;;;;;;;0.00;0.00;;;8.60;99.90;;;;;;5043322;28;20476;-92
2022/02/09 12:29:58;;;;;;;0.00;0.00;;;8.50;99.90;;;;;;5072827;28;20102;-87
2022/02/09 12:32:29;;;;;;;0.00;0.00;;;8.60;99.90;;;;;;5073183;28;20153;-90
2022/02/09 12:35:10;;;;;;;0.10;0.10;;;8.50;99.90;;;;;;5057227;28;20131;-87
2022/02/09 12:37:46;;;;;;;0.10;0.10;;;8.60;99.90;;;;;;5070809;28;20048;-87
2022/02/09 12:40:17;;;;;;;0.08;0.08;;;8.60;99.90;;;;;;5052066;28;20045;-87
2022/02/09 12:42:52;;;;;;;0.80;0.80;;;8.60;99.90;;;;;;5052919;28;20494;-91
2022/02/09 12:45:22;;;;;;;0.00;0.00;;;8.50;99.90;;;;;;5053408;28;20124;-91
2022/02/09 12:47:57;;;;;;;0.05;0.05;;;8.50;99.90;;;;;;5068913;28;20049;-87
2022/02/09 12:50:38;;;;;;;0.10;0.10;;;8.50;99.90;;;;;;5053009;28;20478;-87
2022/02/09 12:53:07;;;;;;;0.00;0.00;;;8.50;99.90;;;;;;5053014;28;20041;-91
2022/02/09 12:55:41;;;;;;;0.10;0.10;;;8.50;99.90;;;;;;5039668;28;20044;-87
2022/02/09 12:58:11;;;;;;;0.00;0.00;;;8.50;99.90;;;;;;5052267;28;20065;-87
2022/02/09 13:00:44;;;;;;;0.00;0.00;;;8.50;99.90;;;;;;5057521;28;20111;-87
2022/02/09 13:03:13;;;;;;;0.00;0.00;;;8.50;99.90;;;;;;5053016;28;20510;-91
2022/02/09 13:05:53;;;;;;;0.00;0.00;;;8.50;99.90;;;;;;5055933;28;20045;-91
2022/02/09 13:08:22;;;;;;;0.00;0.00;;;8.50;99.90;;;;;;5034770;28;20068;-87
2022/02/09 13:10:49;;;;;;;0.00;0.00;;;8.50;99.90;;;;;;5040040;28;20045;-87
2022/02/09 13:13:28;;;;;;;0.00;0.00;;;8.60;99.90;;;;;;5048236;28;20036;-87
2022/02/09 13:16:10;;;;;;;0.15;0.15;;;8.60;99.90;;;;;;5063028;28;20444;-89
2022/02/09 14:13:08;;;;;;;0.00;0.00;;;8.50;99.90;;;;;;5072420;28;20041;-93
2022/02/09 14:15:50;;;;;;;0.10;0.10;;;8.60;99.90;;;;;;5065570;28;20045;-91
2022/02/09 14:54:42;;;;;;;0.00;0.00;;;8.50;99.90;;;;;;5050821;28;20073;-86
2022/02/09 14:57:21;;;;;;;0.00;0.00;;;8.50;99.90;;;;;;5031135;28;20495;-89
2022/02/09 15:00:02;;;;;;;0.00;0.00;;;8.40;99.90;;;;;;5023742;28;20119;-90
2022/02/09 15:05:50;;;;;;;0.05;0.05;;;8.40;99.90;;;;;;5067009;28;20048;-90
2022/02/09 15:10:34;;;;;;;0.00;0.00;;;8.40;99.90;;;;;;5065000;28;20048;-93
2022/02/09 15:13:23;;;;;;;0.00;0.00;;;8.40;99.90;;;;;;5052954;28;20111;-92
2022/02/09 15:18:48;;;;;;;0.10;0.10;;;8.40;99.90;;;;;;5067400;28;20490;-92
2022/02/09 15:23:53;;;;;;;0.05;0.05;;;8.30;99.90;;;;;;5067724;28;20119;-90
2022/02/09 15:26:23;;;;;;;0.00;0.00;;;8.30;99.90;;;;;;5035954;28;20038;-93
2022/02/09 15:28:51;;;;;;;0.10;0.10;;;8.20;99.90;;;;;;5051380;28;20033;-93
2022/02/09 15:31:27;;;;;;;0.10;0.10;;;8.40;99.90;;;;;;5050307;28;20099;-92
2022/02/09 15:34:05;;;;;;;;;;;8.40;99.90;;;;;;5051302;28;20554;-88
2022/02/09 15:37:02;;;;;;;0.10;0.10;;;8.30;99.90;;;;;;5047972;28;19924;-89
2022/02/09 15:39:20;;;;;;;0.00;0.00;;;8.30;99.90;;;;;;5065950;28;20124;-90
2022/02/09 16:22:51;;;;;;;0.10;0.10;;;8.20;99.90;;;;;;5052156;28;20386;-90
2022/02/09 16:25:37;;;;;;;0.00;0.00;;;8.10;99.90;;;;;;5056081;28;20045;-87
2022/02/09 16:45:15;;;;;;;0.00;0.00;;;8.00;99.90;;;;;;5028577;28;20092;-89
2022/02/09 16:48:08;;;;;;;0.00;0.00;;;8.00;99.90;;;;;;4991436;28;20076;-86
2022/02/09 16:50:48;;;;;;;0.00;0.00;;;7.90;99.90;;;;;;5001251;28;20121;-87
2022/02/09 17:21:02;;;;;;;0.00;0.00;;;7.90;99.90;;;;;;4990776;28;20106;-90
2022/02/09 17:23:29;;;;;;;0.05;0.05;;;7.90;99.90;;;;;;5048232;28;20054;-86
2022/02/09 17:25:56;;;;;;;0.03;0.03;;;7.90;99.90;;;;;;5040554;28;20045;-90
2022/02/09 17:28:23;;;;;;;0.00;0.00;;;7.80;99.90;;;;;;5051344;28;20083;-86
2022/02/09 17:39:06;;;;;;;0.00;0.00;;;7.80;99.90;;;;;;5085369;28;20124;-87
2022/02/09 17:53:26;;;;;;;0.00;0.00;;;7.80;99.90;;;;;;5067742;28;20045;-89
2022/02/09 17:58:54;;;;;;;0.00;0.00;;;7.80;99.90;;;;;;5067574;28;20045;-89
2022/02/09 18:01:21;;;;;;;0.00;0.00;;;7.80;99.90;;;;;;5062921;28;20049;-86
2022/02/09 18:03:52;;;;;;;0.10;0.10;;;7.80;99.90;;;;;;5071263;28;20041;-90
2022/02/09 18:06:31;;;;;;;0.10;0.10;;;7.70;99.90;;;;;;5063224;28;19921;-86
2022/02/09 18:31:08;;;;;;;0.00;0.00;;;7.70;99.90;;;;;;5072436;28;20482;-89
2022/02/09 18:48:16;;;;;;;0.08;0.08;;;7.60;99.90;;;;;;5033200;28;20543;-87
2022/02/09 18:59:27;;;;;;;0.00;0.00;;;7.50;99.90;;;;;;5056183;28;20115;-85
2022/02/09 19:04:50;;;;;;;0.00;0.00;;;7.50;99.90;;;;;;5040292;28;20045;-85
2022/02/09 19:19:21;;;;;;;0.10;0.10;;;7.50;99.90;;;;;;5052251;28;20114;-85
2022/02/09 19:27:58;;;;;;;0.00;0.00;;;7.40;99.90;;;;;;5072519;28;20048;-86
2022/02/09 19:33:13;;;;;;;0.00;0.00;;;7.40;99.90;;;;;;5072864;28;20076;-88
2022/02/09 19:57:09;;;;;;;0.00;0.00;;;7.30;99.90;;;;;;5066006;28;20102;-87
2022/02/09 19:59:38;;;;;;;0.10;0.10;;;7.30;99.90;;;;;;5050049;28;20087;-90
2022/02/09 20:02:07;;;;;;;0.10;0.10;;;7.60;99.90;;;;;;5066725;28;20405;-85
2022/02/09 20:04:35;;;;;;;0.10;0.10;;;7.30;99.90;;;;;;5058292;28;20034;-86
2022/02/09 20:07:02;;;;;;;0.00;0.00;;;7.30;99.90;;;;;;5068940;28;20057;-90
2022/02/09 20:09:29;;;;;;;0.10;0.10;;;7.40;99.90;;;;;;5050734;28;20045;-89
2022/02/09 20:11:56;;;;;;;0.10;0.10;;;7.30;99.90;;;;;;5045710;28;20116;-86
2022/02/09 20:14:23;;;;;;;0.10;0.10;;;7.40;99.90;;;;;;5073846;28;20037;-88
2022/02/09 20:16:50;;;;;;;0.10;0.10;;;7.40;99.90;;;;;;5066348;28;20049;-89
2022/02/09 20:19:17;;;;;;;0.00;0.00;;;7.40;99.90;;;;;;5056906;28;20041;-85
2022/02/09 20:21:44;;;;;;;0.10;0.10;;;7.40;99.90;;;;;;5047564;28;20567;-90
2022/02/09 20:24:14;;;;;;;0.00;0.00;;;7.40;99.90;;;;;;5056635;28;20124;-89
2022/02/09 20:26:42;;;;;;;0.10;0.10;;;7.40;99.90;;;;;;5072776;28;20568;-89
2022/02/09 20:29:18;;;;;;;0.00;0.00;;;7.40;99.90;;;;;;5059139;28;20091;-88
2022/02/09 20:34:29;;;;;;;0.00;0.00;;;7.40;99.90;;;;;;5052497;28;20297;-89
2022/02/09 20:36:56;;;;;;;0.10;0.10;;;7.40;99.90;;;;;;5069740;28;20041;-92
2022/02/09 20:39:28;;;;;;;0.00;0.00;;;7.40;99.90;;;;;;5036713;28;20109;-94
2022/02/09 20:41:57;;;;;;;0.00;0.00;;;7.40;99.90;;;;;;5053168;28;20072;-89
2022/02/09 20:44:32;;;;;;;0.10;0.10;;;7.40;99.90;;;;;;5049989;28;20075;-87
2022/02/09 20:46:59;;;;;;;0.10;0.10;;;7.40;99.90;;;;;;5053119;28;20336;-89
2022/02/09 20:49:26;;;;;;;0.00;0.00;;;7.10;99.90;;;;;;5035725;28;20041;-89
2022/02/09 20:51:53;;;;;;;0.00;0.00;;;7.40;99.90;;;;;;5055043;28;20050;-87
2022/02/09 20:54:20;;;;;;;0.00;0.00;;;7.40;99.90;;;;;;5053191;28;20481;-89
2022/02/09 20:56:47;;;;;;;0.10;0.10;;;7.40;99.90;;;;;;5057125;28;20129;-87
2022/02/09 20:59:16;;;;;;;0.10;0.10;;;7.40;99.90;;;;;;5035110;28;20052;-91
2022/02/09 21:01:53;;;;;;;0.08;0.08;;;7.40;99.90;;;;;;5059883;28;20417;-87
2022/02/09 21:04:24;;;;;;;0.10;0.10;;;7.40;99.90;;;;;;5048148;28;20040;-86
2022/02/09 21:07:02;;;;;;;0.10;0.10;;;7.40;99.90;;;;;;5054640;28;20486;-93
2022/02/09 21:12:20;;;;;;;0.10;0.10;;;7.40;99.90;;;;;;5064736;28;20077;-90
2022/02/09 21:25:38;;;;;;;0.10;0.10;;;7.30;99.90;;;;;;5054168;28;20489;-88
2022/02/09 21:41:52;;;;;;;0.08;0.08;;;7.30;99.90;;;;;;5055919;28;20584;-93
2022/02/09 21:52:41;;;;;;;0.00;0.00;;;7.40;99.90;;;;;;5054300;28;20517;-92
2022/02/09 21:57:59;;;;;;;0.05;0.05;;;7.40;99.90;;;;;;5055149;28;20050;-85
2022/02/09 22:00:43;;;;;;;0.10;0.10;;;7.40;99.90;;;;;;5051816;28;20061;-85
2022/02/09 22:22:15;;;;;;;0.10;0.10;;;7.40;99.90;;;;;;5070356;28;20045;-92
2022/02/09 22:56:41;;;;;;;0.10;0.10;;;7.40;99.90;;;;;;5067938;28;20049;-85
2022/02/09 22:59:16;;;;;;;0.05;0.05;;;7.50;99.90;;;;;;5050645;28;20033;-94
2022/02/09 23:01:50;;;;;;;0.00;0.00;;;7.50;99.90;;;;;;5053036;28;20061;-92
2022/02/09 23:09:48;;;;;;;0.10;0.10;;;7.40;99.90;;;;;;5052043;28;20052;-86
2022/02/09 23:15:11;;;;;;;0.00;0.00;;;7.40;99.90;;;;;;5052700;28;20053;-93
2022/02/09 23:29:16;;;;;;;0.00;0.00;;;7.40;99.90;;;;;;5051290;28;20045;-86
